Time;durP1;ratioP1;P1;durP2;ratioP2;P2;SDS_P1;SDS_P2;PMS_P1;PMS_P2;Temp;Humidity;BMP_temperature;BMP_pressure;BME280_temperature;BME280_humidity;BME280_pressure;Samples;Min_cycle;Max_cycle;Signal;HPM_P1;HPM_P2
2022/12/17 13:08:18;;;;;;;8.52;4.60;;;;;;;;;;5052099;28;20707;-52
2022/12/17 13:10:46;;;;;;;7.90;4.37;;;;;;;;;;5039130;28;20224;-45
2022/12/17 13:13:16;;;;;;;12.73;7.03;;;;;;;;;;5042119;28;20598;-42
2022/12/17 13:15:47;;;;;;;6.60;4.23;;;;;;;;;;5053200;28;20232;-43
2022/12/17 13:18:32;;;;;;;10.43;5.53;;;;;;;;;;5037788;28;20243;-45
2022/12/17 13:21:24;;;;;;;8.43;4.43;;;;;;;;;;5033025;28;20224;-45
2022/12/17 13:23:51;;;;;;;17.27;7.43;;;;;;;;;;5033779;28;20232;-45
2022/12/17 13:26:42;;;;;;;10.20;5.17;;;;;;;;;;5034610;28;20228;-43
2022/12/17 13:29:23;;;;;;;10.37;5.87;;;;;;;;;;5054042;28;20224;-42
2022/12/17 13:31:55;;;;;;;12.37;5.87;;;;;;;;;;5050274;28;20703;-43
2022/12/17 13:34:54;;;;;;;6.67;3.27;;;;;;;;;;5047880;28;20228;-46
2022/12/17 13:37:44;;;;;;;6.73;3.90;;;;;;;;;;5031637;28;20229;-45
2022/12/17 13:40:39;;;;;;;17.37;7.13;;;;;;;;;;5044087;28;20548;-45
2022/12/17 13:43:15;;;;;;;18.53;7.53;;;;;;;;;;5050811;28;20314;-44
2022/12/17 13:45:43;;;;;;;9.67;4.87;;;;;;;;;;5033357;28;20243;-46
2022/12/17 13:48:20;;;;;;;11.80;5.07;;;;;;;;;;5050035;28;20224;-41
2022/12/17 13:51:02;;;;;;;12.67;6.03;;;;;;;;;;5050857;28;20563;-44
2022/12/17 13:53:33;;;;;;;18.23;6.97;;;;;;;;;;5051668;28;20246;-40
2022/12/17 13:56:00;;;;;;;13.03;6.47;;;;;;;;;;5052509;28;20279;-44
2022/12/17 13:58:31;;;;;;;19.27;7.63;;;;;;;;;;5052861;28;20223;-41
2022/12/17 14:01:09;;;;;;;18.43;8.63;;;;;;;;;;5051949;28;20228;-41
2022/12/17 14:03:37;;;;;;;19.33;7.90;;;;;;;;;;5058675;28;20568;-43
2022/12/17 14:06:35;;;;;;;8.83;5.30;;;;;;;;;;5054205;28;20674;-44
2022/12/17 14:09:02;;;;;;;13.63;5.83;;;;;;;;;;5052724;28;20310;-43
2022/12/17 14:14:35;;;;;;;14.07;6.90;;;;;;;;;;5055460;28;20238;-41
2022/12/17 14:17:04;;;;;;;38.07;12.93;;;;;;;;;;5054969;28;20281;-41
2022/12/17 14:19:31;;;;;;;27.17;11.53;;;;;;;;;;5054062;28;20271;-40
2022/12/17 14:21:59;;;;;;;6.63;3.73;;;;;;;;;;5035893;28;20220;-40
2022/12/17 14:24:28;;;;;;;23.93;9.40;;;;;;;;;;5045630;28;20220;-41
2022/12/17 14:26:58;;;;;;;26.57;11.20;;;;;;;;;;5054670;28;20235;-42
2022/12/17 14:29:30;;;;;;;19.17;8.07;;;;;;;;;;5055221;28;20752;-44
2022/12/17 14:32:01;;;;;;;20.03;9.10;;;;;;;;;;5055367;28;20224;-41
2022/12/17 14:34:39;;;;;;;11.73;4.40;;;;;;;;;;5041101;28;20221;-40
2022/12/17 14:37:16;;;;;;;7.63;4.50;;;;;;;;;;5048897;28;20223;-41
2022/12/17 14:39:45;;;;;;;7.20;4.17;;;;;;;;;;5054914;28;20224;-40
2022/12/17 14:42:25;;;;;;;23.23;10.43;;;;;;;;;;5048030;28;20243;-40
2022/12/17 14:44:57;;;;;;;20.63;8.83;;;;;;;;;;5042240;28;20228;-47
2022/12/17 14:47:28;;;;;;;7.60;3.43;;;;;;;;;;5035912;28;20225;-41
2022/12/17 14:50:03;;;;;;;11.70;4.90;;;;;;;;;;5052287;28;20540;-40
2022/12/17 14:52:35;;;;;;;14.50;6.03;;;;;;;;;;5056390;28;20227;-40
2022/12/17 14:55:27;;;;;;;18.30;7.83;;;;;;;;;;5056428;28;20555;-47
2022/12/17 14:58:07;;;;;;;6.57;3.17;;;;;;;;;;5055850;28;20228;-41
2022/12/17 15:00:45;;;;;;;4.87;3.27;;;;;;;;;;5052289;28;20705;-45
2022/12/17 15:03:27;;;;;;;10.40;5.80;;;;;;;;;;5045320;28;20227;-40
2022/12/17 15:06:03;;;;;;;9.73;4.63;;;;;;;;;;5046501;28;20254;-41
2022/12/17 15:08:34;;;;;;;17.17;5.93;;;;;;;;;;5042411;28;21024;-40
2022/12/17 15:11:02;;;;;;;9.40;4.47;;;;;;;;;;5044314;28;20315;-41
2022/12/17 15:13:30;;;;;;;8.37;4.60;;;;;;;;;;5047331;28;20234;-41
2022/12/17 15:15:57;;;;;;;10.40;5.23;;;;;;;;;;5055258;28;20244;-40
2022/12/17 15:18:24;;;;;;;16.07;6.93;;;;;;;;;;5055194;28;20254;-40
2022/12/17 15:20:51;;;;;;;16.27;7.37;;;;;;;;;;5049495;28;20598;-41
2022/12/17 15:23:21;;;;;;;12.30;6.10;;;;;;;;;;5048810;28;20224;-40
2022/12/17 15:25:50;;;;;;;14.90;6.03;;;;;;;;;;5055918;28;20528;-40
2022/12/17 15:28:18;;;;;;;15.70;6.73;;;;;;;;;;5055575;28;20246;-40
2022/12/17 15:30:46;;;;;;;16.03;7.13;;;;;;;;;;5055517;28;20254;-45
2022/12/17 15:33:14;;;;;;;28.70;11.57;;;;;;;;;;5054922;28;20238;-40
2022/12/17 15:35:42;;;;;;;33.43;12.87;;;;;;;;;;5053681;28;20232;-39
2022/12/17 15:38:10;;;;;;;30.67;11.67;;;;;;;;;;5039148;28;20225;-40
2022/12/17 15:40:37;;;;;;;8.87;5.07;;;;;;;;;;5034367;28;20286;-42
2022/12/17 15:43:10;;;;;;;16.47;6.13;;;;;;;;;;5044333;28;20224;-40
2022/12/17 15:45:38;;;;;;;13.53;6.43;;;;;;;;;;5053910;28;20235;-43
2022/12/17 15:48:05;;;;;;;23.90;10.17;;;;;;;;;;5046757;28;20220;-40
2022/12/17 15:50:32;;;;;;;42.33;13.77;;;;;;;;;;5048151;28;20302;-44
2022/12/17 15:53:00;;;;;;;48.90;17.00;;;;;;;;;;5043557;28;20591;-40
2022/12/17 15:55:27;;;;;;;34.07;13.17;;;;;;;;;;5042526;28;20224;-41
2022/12/17 15:57:54;;;;;;;16.93;5.90;;;;;;;;;;5043173;28;20236;-42
2022/12/17 16:00:21;;;;;;;17.00;8.90;;;;;;;;;;5040237;28;20674;-40
2022/12/17 16:02:49;;;;;;;14.03;6.37;;;;;;;;;;5050669;28;20234;-41
2022/12/17 16:05:17;;;;;;;9.53;4.53;;;;;;;;;;5055394;28;20228;-41
2022/12/17 16:07:44;;;;;;;12.10;5.10;;;;;;;;;;5055390;28;20228;-41
2022/12/17 16:10:12;;;;;;;8.90;4.73;;;;;;;;;;5054700;28;20252;-44
2022/12/17 16:12:40;;;;;;;13.00;5.53;;;;;;;;;;5055431;28;20307;-40
2022/12/17 16:15:07;;;;;;;20.17;8.33;;;;;;;;;;5054076;28;20251;-44
2022/12/17 16:17:35;;;;;;;9.87;6.00;;;;;;;;;;5049983;28;20228;-44
2022/12/17 16:20:03;;;;;;;11.47;6.67;;;;;;;;;;5036638;28;20327;-44
2022/12/17 16:22:30;;;;;;;15.57;7.27;;;;;;;;;;5034662;28;20589;-42
2022/12/17 16:24:57;;;;;;;7.97;3.93;;;;;;;;;;5034550;28;20299;-40
2022/12/17 16:27:24;;;;;;;8.87;4.33;;;;;;;;;;5037254;28;20565;-40
2022/12/17 16:29:51;;;;;;;11.57;4.40;;;;;;;;;;5049808;28;20650;-45
2022/12/17 16:32:18;;;;;;;9.73;5.13;;;;;;;;;;5049825;28;20228;-40
2022/12/17 16:34:45;;;;;;;4.60;3.53;;;;;;;;;;5034358;28;20541;-42
2022/12/17 16:37:13;;;;;;;31.93;12.80;;;;;;;;;;5045320;28;20235;-41
2022/12/17 16:39:40;;;;;;;6.47;3.70;;;;;;;;;;5054519;28;20686;-44
2022/12/17 16:42:07;;;;;;;8.73;4.07;;;;;;;;;;5054451;28;20550;-41
2022/12/17 16:44:34;;;;;;;16.10;6.00;;;;;;;;;;5049156;28;20284;-41
2022/12/17 16:47:01;;;;;;;12.20;5.87;;;;;;;;;;5036781;28;20231;-42
2022/12/17 16:49:28;;;;;;;18.20;7.67;;;;;;;;;;5039126;28;20239;-43
2022/12/17 16:51:56;;;;;;;12.67;5.07;;;;;;;;;;5033672;28;20236;-40
2022/12/17 16:54:25;;;;;;;8.63;5.20;;;;;;;;;;5034343;28;20244;-40
2022/12/17 16:56:53;;;;;;;22.53;10.50;;;;;;;;;;5034126;28;20236;-41
2022/12/17 16:59:22;;;;;;;15.73;7.70;;;;;;;;;;5034045;28;20228;-41
2022/12/17 17:01:50;;;;;;;18.80;8.03;;;;;;;;;;5033820;28;20295;-46
2022/12/17 17:04:20;;;;;;;12.90;6.00;;;;;;;;;;5054129;28;20223;-40
2022/12/17 17:06:50;;;;;;;25.30;9.00;;;;;;;;;;5054029;28;20228;-43
2022/12/17 17:09:17;;;;;;;8.53;4.03;;;;;;;;;;5053917;28;20223;-40
2022/12/17 17:11:45;;;;;;;10.97;4.53;;;;;;;;;;5053946;28;20713;-41
2022/12/17 17:14:18;;;;;;;22.53;9.63;;;;;;;;;;5054036;28;20301;-40
2022/12/17 17:16:45;;;;;;;16.20;7.20;;;;;;;;;;5053752;28;20236;-41
2022/12/17 17:19:12;;;;;;;12.20;5.40;;;;;;;;;;5047569;28;20319;-41
2022/12/17 17:21:41;;;;;;;15.17;6.63;;;;;;;;;;5053306;28;20224;-43
2022/12/17 17:24:14;;;;;;;20.37;7.67;;;;;;;;;;5051094;28;20248;-41
2022/12/17 17:26:49;;;;;;;38.63;14.90;;;;;;;;;;5043715;28;20228;-45
2022/12/17 17:29:16;;;;;;;30.70;13.20;;;;;;;;;;5032575;28;20525;-40
2022/12/17 17:31:43;;;;;;;26.30;9.07;;;;;;;;;;5033163;28;20553;-40
2022/12/17 17:34:30;;;;;;;8.87;3.83;;;;;;;;;;5048737;28;20219;-41
2022/12/17 17:36:57;;;;;;;8.63;3.93;;;;;;;;;;5052733;28;20243;-40
2022/12/17 17:39:24;;;;;;;17.17;5.77;;;;;;;;;;5053953;28;20238;-41
2022/12/17 17:41:51;;;;;;;16.23;7.10;;;;;;;;;;5057507;28;20223;-42
2022/12/17 17:44:18;;;;;;;8.13;4.57;;;;;;;;;;5057514;28;20678;-42
2022/12/17 17:46:45;;;;;;;13.10;5.67;;;;;;;;;;5056980;28;20224;-41
2022/12/17 17:49:12;;;;;;;5.93;2.77;;;;;;;;;;5055767;28;20223;-41
2022/12/17 17:51:42;;;;;;;9.67;5.63;;;;;;;;;;5057462;28;20219;-41
2022/12/17 17:54:29;;;;;;;10.50;5.53;;;;;;;;;;5057850;28;20562;-41
2022/12/17 17:56:56;;;;;;;7.20;4.23;;;;;;;;;;5056227;28;20243;-40
2022/12/17 17:59:23;;;;;;;11.00;5.13;;;;;;;;;;5054267;28;20229;-41
2022/12/17 18:01:59;;;;;;;6.33;3.77;;;;;;;;;;5045352;28;20247;-41
2022/12/17 18:04:26;;;;;;;6.60;3.53;;;;;;;;;;5052402;28;20235;-41
2022/12/17 18:06:54;;;;;;;9.13;5.40;;;;;;;;;;5046771;28;20626;-42
2022/12/17 18:09:41;;;;;;;4.50;2.80;;;;;;;;;;5049613;28;20216;-43
2022/12/17 18:14:53;;;;;;;10.10;5.20;;;;;;;;;;5050802;28;20223;-41
2022/12/17 18:17:41;;;;;;;12.77;6.17;;;;;;;;;;5047084;28;20224;-42
2022/12/17 18:20:08;;;;;;;10.53;4.80;;;;;;;;;;5041586;28;20330;-42
2022/12/17 18:22:36;;;;;;;11.13;5.63;;;;;;;;;;5045476;28;20212;-40
2022/12/17 18:25:03;;;;;;;8.17;4.47;;;;;;;;;;5045456;28;20226;-41
2022/12/17 18:27:31;;;;;;;9.07;4.43;;;;;;;;;;5046168;28;20245;-45
2022/12/17 18:29:58;;;;;;;8.77;3.73;;;;;;;;;;5045388;28;20224;-41
2022/12/17 18:32:25;;;;;;;11.67;5.93;;;;;;;;;;5046520;28;20223;-40
2022/12/17 18:34:52;;;;;;;11.27;5.53;;;;;;;;;;5053260;28;20255;-44
2022/12/17 18:37:20;;;;;;;9.47;4.37;;;;;;;;;;5056893;28;20674;-40
2022/12/17 18:39:47;;;;;;;17.37;7.30;;;;;;;;;;5056876;28;20322;-41
2022/12/17 18:45:00;;;;;;;14.13;5.53;;;;;;;;;;5050069;28;20216;-40
2022/12/17 18:47:27;;;;;;;10.33;4.23;;;;;;;;;;5042914;28;20221;-40
2022/12/17 18:49:54;;;;;;;15.40;6.37;;;;;;;;;;5036636;28;20282;-41
2022/12/17 18:52:23;;;;;;;8.30;4.13;;;;;;;;;;5035297;28;20224;-40
2022/12/17 18:54:50;;;;;;;11.23;4.00;;;;;;;;;;5036443;28;20228;-42
2022/12/17 18:57:17;;;;;;;11.57;4.73;;;;;;;;;;5049382;28;20549;-40
2022/12/17 18:59:44;;;;;;;12.27;6.20;;;;;;;;;;5082373;28;20266;-44
2022/12/17 19:02:12;;;;;;;10.20;4.67;;;;;;;;;;5041852;28;20550;-40
2022/12/17 19:04:40;;;;;;;7.17;3.93;;;;;;;;;;5045201;28;20609;-40
2022/12/17 19:07:07;;;;;;;11.47;4.57;;;;;;;;;;5036200;28;20282;-40
2022/12/17 19:09:35;;;;;;;15.93;5.87;;;;;;;;;;5036407;28;20240;-40
2022/12/17 19:12:04;;;;;;;22.93;9.17;;;;;;;;;;5035573;28;20255;-41
2022/12/17 19:14:32;;;;;;;14.40;7.50;;;;;;;;;;5036155;28;20236;-40
2022/12/17 19:17:00;;;;;;;11.20;6.17;;;;;;;;;;5054725;28;20246;-41
2022/12/17 19:19:27;;;;;;;10.30;5.20;;;;;;;;;;5055041;28;20236;-40
2022/12/17 19:21:55;;;;;;;24.07;8.80;;;;;;;;;;5055884;28;20289;-40
2022/12/17 19:24:22;;;;;;;11.33;6.10;;;;;;;;;;5055987;28;20235;-39
2022/12/17 19:26:50;;;;;;;15.00;7.87;;;;;;;;;;5055430;28;20302;-40
2022/12/17 19:29:18;;;;;;;12.83;6.57;;;;;;;;;;5005341;28;20228;-40
2022/12/17 19:31:45;;;;;;;14.17;6.23;;;;;;;;;;5045793;28;20250;-44
2022/12/17 19:34:14;;;;;;;21.30;8.20;;;;;;;;;;5045091;28;20247;-43
2022/12/17 19:36:43;;;;;;;15.30;6.60;;;;;;;;;;5044089;28;20220;-40
2022/12/17 19:39:12;;;;;;;10.17;4.17;;;;;;;;;;5041210;28;20240;-39
2022/12/17 19:41:39;;;;;;;11.90;6.37;;;;;;;;;;5035606;28;20302;-40
2022/12/17 19:44:11;;;;;;;21.50;8.60;;;;;;;;;;5035627;28;20239;-40
2022/12/17 19:46:38;;;;;;;10.03;5.30;;;;;;;;;;5048267;28;20636;-40
2022/12/17 19:49:07;;;;;;;15.33;6.20;;;;;;;;;;5055314;28;20755;-40
2022/12/17 19:51:38;;;;;;;13.70;6.27;;;;;;;;;;5054423;28;20224;-41
2022/12/17 19:54:05;;;;;;;12.57;5.30;;;;;;;;;;5055249;28;20231;-40
2022/12/17 19:56:35;;;;;;;12.17;6.37;;;;;;;;;;5053195;28;20247;-39
2022/12/17 19:59:06;;;;;;;8.67;4.43;;;;;;;;;;5053283;28;20311;-40
2022/12/17 20:01:36;;;;;;;14.93;6.30;;;;;;;;;;5054081;28;20224;-41
2022/12/17 20:04:04;;;;;;;16.93;7.23;;;;;;;;;;5053182;28;20220;-40
2022/12/17 20:06:33;;;;;;;12.73;6.97;;;;;;;;;;5053078;28;20674;-43
2022/12/17 20:09:01;;;;;;;18.03;8.33;;;;;;;;;;5053456;28;20247;-46
2022/12/17 20:11:34;;;;;;;15.20;6.53;;;;;;;;;;5040337;28;20243;-41
2022/12/17 20:14:13;;;;;;;11.33;6.53;;;;;;;;;;5035338;28;20220;-41
2022/12/17 20:16:43;;;;;;;9.23;4.17;;;;;;;;;;5034966;28;20288;-39
2022/12/17 20:19:13;;;;;;;11.97;5.47;;;;;;;;;;5035159;28;20272;-40
2022/12/17 20:21:41;;;;;;;18.33;7.63;;;;;;;;;;5035205;28;20236;-40
2022/12/17 20:24:09;;;;;;;15.33;7.03;;;;;;;;;;5034615;28;20229;-40
2022/12/17 20:26:37;;;;;;;16.53;6.30;;;;;;;;;;5034715;28;20233;-40
2022/12/17 20:29:04;;;;;;;12.00;7.30;;;;;;;;;;5034653;28;20244;-41
2022/12/17 20:31:32;;;;;;;14.47;8.67;;;;;;;;;;5034782;28;20236;-40
2022/12/17 20:34:00;;;;;;;16.33;6.93;;;;;;;;;;5052794;28;20224;-40
2022/12/17 20:36:27;;;;;;;9.83;6.23;;;;;;;;;;5054710;28;20236;-41
2022/12/17 20:38:55;;;;;;;15.90;7.40;;;;;;;;;;5054427;28;20602;-40
2022/12/17 20:41:24;;;;;;;23.00;9.10;;;;;;;;;;5049321;28;20687;-39
2022/12/17 20:43:51;;;;;;;16.13;7.67;;;;;;;;;;5047320;28;20216;-44
2022/12/17 20:46:20;;;;;;;12.30;6.23;;;;;;;;;;5051110;28;20522;-41
2022/12/17 20:48:47;;;;;;;21.67;8.53;;;;;;;;;;5047966;28;20848;-44
2022/12/17 20:51:20;;;;;;;15.87;7.43;;;;;;;;;;5039260;28;20213;-40
2022/12/17 20:53:47;;;;;;;26.57;10.27;;;;;;;;;;5042349;28;20274;-43
2022/12/17 20:56:17;;;;;;;18.20;8.63;;;;;;;;;;5033578;28;20232;-40
2022/12/17 20:58:44;;;;;;;15.13;8.10;;;;;;;;;;5034741;28;20224;-40
2022/12/17 21:01:17;;;;;;;10.93;6.40;;;;;;;;;;5034369;28;20228;-39
2022/12/17 21:03:45;;;;;;;17.63;7.47;;;;;;;;;;5034060;28;20296;-47
2022/12/17 21:06:20;;;;;;;16.40;8.83;;;;;;;;;;5037356;28;20212;-41
2022/12/17 21:08:49;;;;;;;13.73;7.53;;;;;;;;;;5034298;28;20319;-40
2022/12/17 21:11:19;;;;;;;17.23;7.80;;;;;;;;;;5034183;28;20549;-40
2022/12/17 21:13:46;;;;;;;12.10;5.53;;;;;;;;;;5034119;28;20235;-41
2022/12/17 21:16:24;;;;;;;14.83;5.87;;;;;;;;;;5033846;28;20270;-40
2022/12/17 21:18:52;;;;;;;22.73;10.33;;;;;;;;;;5033890;28;20255;-41
2022/12/17 21:21:22;;;;;;;17.40;6.90;;;;;;;;;;5033555;28;20228;-44
2022/12/17 21:23:49;;;;;;;21.07;8.97;;;;;;;;;;5033943;28;20236;-40
2022/12/17 21:26:25;;;;;;;18.43;8.13;;;;;;;;;;5033759;28;20224;-40
2022/12/17 21:28:58;;;;;;;23.00;10.57;;;;;;;;;;5033922;28;20231;-41
2022/12/17 21:31:28;;;;;;;23.20;9.77;;;;;;;;;;5034403;28;20220;-40
2022/12/17 21:33:57;;;;;;;39.10;14.50;;;;;;;;;;5051664;28;20232;-41
2022/12/17 21:36:27;;;;;;;17.93;8.63;;;;;;;;;;5053430;28;20227;-39
2022/12/17 21:38:54;;;;;;;22.73;9.70;;;;;;;;;;5053666;28;20231;-40
2022/12/17 21:41:27;;;;;;;18.33;7.13;;;;;;;;;;5053838;28;20220;-40
2022/12/17 21:43:56;;;;;;;38.43;12.03;;;;;;;;;;5052720;28;20255;-41
2022/12/17 21:46:26;;;;;;;21.83;9.10;;;;;;;;;;5052783;28;20208;-40
2022/12/17 21:48:54;;;;;;;15.93;7.10;;;;;;;;;;5053451;28;20549;-40
2022/12/17 21:51:22;;;;;;;17.37;7.07;;;;;;;;;;5053500;28;20215;-39
2022/12/17 21:53:54;;;;;;;26.47;8.13;;;;;;;;;;5053424;28;20235;-46
2022/12/17 21:56:22;;;;;;;23.97;8.40;;;;;;;;;;5053272;28;20228;-40
2022/12/17 21:58:49;;;;;;;19.30;8.00;;;;;;;;;;5053662;28;20266;-46
2022/12/17 22:01:20;;;;;;;22.07;8.87;;;;;;;;;;5053903;28;20246;-40
2022/12/17 22:03:48;;;;;;;30.90;8.73;;;;;;;;;;5053357;28;20585;-41
2022/12/17 22:06:22;;;;;;;42.73;14.33;;;;;;;;;;5053057;28;20224;-40
2022/12/17 22:08:58;;;;;;;21.13;9.17;;;;;;;;;;5053558;28;20224;-41
2022/12/17 22:11:39;;;;;;;30.27;11.40;;;;;;;;;;5053192;28;20598;-40
2022/12/17 22:14:11;;;;;;;22.00;8.93;;;;;;;;;;5053384;28;20306;-39
2022/12/17 22:16:47;;;;;;;37.73;12.77;;;;;;;;;;5053758;28;20240;-42
2022/12/17 22:19:18;;;;;;;20.87;7.87;;;;;;;;;;5052242;28;20238;-40
2022/12/17 22:21:49;;;;;;;23.40;7.37;;;;;;;;;;5053642;28;20224;-40
2022/12/17 22:24:21;;;;;;;27.17;9.00;;;;;;;;;;5053959;28;20315;-40
2022/12/17 22:26:49;;;;;;;43.50;15.80;;;;;;;;;;5056301;28;20514;-40
2022/12/17 22:32:58;;;;;;;44.70;17.43;;;;;;;;;;5057925;28;20562;-40
2022/12/17 22:34:49;;;;;;;36.37;15.77;;;;;;;;;;5058146;28;20200;-40
2022/12/17 22:37:36;;;;;;;23.20;10.97;;;;;;;;;;5056414;28;20232;-40
2022/12/17 22:40:23;;;;;;;26.60;11.57;;;;;;;;;;5046335;28;20204;-39
2022/12/17 22:43:29;;;;;;;25.20;8.53;;;;;;;;;;5037898;28;20266;-40
2022/12/17 22:46:16;;;;;;;33.80;10.63;;;;;;;;;;5037959;28;20250;-40
2022/12/17 22:48:43;;;;;;;18.83;8.40;;;;;;;;;;5037539;28;20212;-40
2022/12/17 22:51:11;;;;;;;20.53;8.53;;;;;;;;;;5037350;28;20638;-40
2022/12/17 22:53:53;;;;;;;27.03;9.67;;;;;;;;;;5037749;28;20205;-39
2022/12/17 22:56:21;;;;;;;20.93;9.90;;;;;;;;;;5037502;28;20288;-40
2022/12/17 22:59:15;;;;;;;42.63;12.40;;;;;;;;;;5037318;28;20215;-39
2022/12/17 23:01:42;;;;;;;22.87;9.37;;;;;;;;;;5037498;28;20201;-40
2022/12/17 23:04:14;;;;;;;54.90;16.97;;;;;;;;;;5037299;28;20192;-39
2022/12/17 23:06:44;;;;;;;19.33;7.90;;;;;;;;;;5037108;28;20692;-39
2022/12/17 23:09:12;;;;;;;28.47;9.37;;;;;;;;;;5037627;28;20220;-40
2022/12/17 23:11:39;;;;;;;12.47;6.17;;;;;;;;;;5037213;28;20229;-40
2022/12/17 23:14:07;;;;;;;30.03;11.23;;;;;;;;;;5037195;28;20219;-39
2022/12/17 23:16:37;;;;;;;15.93;6.27;;;;;;;;;;5037204;28;20303;-39
2022/12/17 23:19:05;;;;;;;34.43;12.33;;;;;;;;;;5037236;28;20237;-40
2022/12/17 23:21:32;;;;;;;30.87;11.07;;;;;;;;;;5037030;28;20284;-39
2022/12/17 23:23:59;;;;;;;51.10;15.97;;;;;;;;;;5036966;28;20551;-40
2022/12/17 23:26:32;;;;;;;18.33;6.33;;;;;;;;;;5036851;28;20615;-40
2022/12/17 23:29:02;;;;;;;27.07;8.63;;;;;;;;;;5037060;28;20553;-40
2022/12/17 23:31:33;;;;;;;11.63;6.30;;;;;;;;;;5037115;28;20189;-40
2022/12/17 23:34:00;;;;;;;27.63;11.23;;;;;;;;;;5037163;28;20591;-40
2022/12/17 23:36:28;;;;;;;17.77;7.97;;;;;;;;;;5036628;28;20212;-39
2022/12/17 23:38:56;;;;;;;25.00;8.03;;;;;;;;;;5035889;28;20555;-39
2022/12/17 23:41:27;;;;;;;16.03;6.20;;;;;;;;;;5036766;28;20225;-39
2022/12/17 23:43:56;;;;;;;18.57;8.80;;;;;;;;;;5036904;28;20636;-39
2022/12/17 23:46:24;;;;;;;13.87;5.17;;;;;;;;;;5036918;28;20236;-40
2022/12/17 23:48:52;;;;;;;19.53;8.30;;;;;;;;;;5036471;28;20208;-40
2022/12/17 23:51:21;;;;;;;14.70;4.90;;;;;;;;;;5036430;28;20200;-40
2022/12/17 23:53:49;;;;;;;11.77;5.00;;;;;;;;;;5036374;28;20212;-40
2022/12/17 23:56:18;;;;;;;26.47;7.90;;;;;;;;;;5036252;28;20201;-39
2022/12/17 23:58:46;;;;;;;18.47;9.10;;;;;;;;;;5036544;28;20232;-39
